createdAt,value
2024-02-18T00:00:40.884Z,89
2024-02-18T00:01:47.166Z,89
2024-02-18T00:02:53.409Z,89
2024-02-18T00:03:59.682Z,89
2024-02-18T00:05:05.957Z,89
2024-02-18T00:06:12.228Z,89.5
2024-02-18T00:07:18.525Z,89.5
2024-02-18T00:08:24.778Z,89.5
2024-02-18T00:09:31.053Z,89
2024-02-18T00:10:36.343Z,89
2024-02-18T00:11:42.607Z,89
2024-02-18T00:12:48.877Z,89
2024-02-18T00:13:55.151Z,89
2024-02-18T00:15:01.482Z,89
2024-02-18T00:16:07.710Z,89
2024-02-18T00:17:13.970Z,89
2024-02-18T00:18:20.232Z,89.5
2024-02-18T00:19:26.556Z,89
2024-02-18T00:20:32.784Z,89.5
2024-02-18T00:21:39.055Z,89.5
2024-02-18T00:22:45.333Z,89.5
2024-02-18T00:23:51.608Z,89.5
2024-02-18T00:24:56.905Z,89.5
2024-02-18T00:26:03.166Z,89.5
2024-02-18T00:27:09.431Z,89.5
2024-02-18T00:28:15.706Z,89.5
2024-02-18T00:29:21.971Z,89.5
2024-02-18T00:30:28.252Z,89.5
2024-02-18T00:31:34.539Z,89.5
2024-02-18T00:32:40.803Z,89.5
2024-02-18T00:33:47.066Z,90
2024-02-18T00:34:53.392Z,90
2024-02-18T00:35:59.690Z,90
2024-02-18T00:37:05.884Z,90
2024-02-18T00:38:12.158Z,90
2024-02-18T00:39:17.458Z,90
2024-02-18T00:40:23.709Z,90
2024-02-18T00:41:30.091Z,90
2024-02-18T00:42:36.269Z,90
2024-02-18T00:43:42.594Z,90
2024-02-18T00:44:48.808Z,90
2024-02-18T00:45:55.077Z,90
2024-02-18T00:47:01.352Z,90
2024-02-18T00:48:07.755Z,90
2024-02-18T00:49:13.995Z,90
2024-02-18T00:50:20.266Z,90
2024-02-18T00:51:26.533Z,90
2024-02-18T00:52:32.844Z,90
2024-02-18T00:53:37.998Z,90
2024-02-18T00:54:44.274Z,90
2024-02-18T00:55:50.593Z,90
2024-02-18T00:56:56.901Z,90
2024-02-18T00:58:03.192Z,89.5
2024-02-18T00:59:09.501Z,90
2024-02-18T01:00:15.677Z,90
2024-02-18T01:01:21.965Z,90
2024-02-18T01:02:28.294Z,90.5
2024-02-18T01:03:34.455Z,90
2024-02-18T01:04:40.785Z,90
2024-02-18T01:05:47.184Z,90.5
2024-02-18T01:06:53.356Z,90.5
2024-02-18T01:07:58.666Z,90.5
2024-02-18T01:09:04.970Z,90.5
2024-02-18T01:10:11.271Z,91
2024-02-18T01:11:17.447Z,91
2024-02-18T01:12:23.719Z,91
2024-02-18T01:13:30.018Z,91.5
2024-02-18T01:14:36.273Z,91.5
2024-02-18T01:15:42.531Z,91.5
2024-02-18T01:16:48.832Z,91.5
2024-02-18T01:17:55.129Z,91.5
2024-02-18T01:19:01.352Z,91.5
2024-02-18T01:20:07.557Z,91.5
2024-02-18T01:21:13.928Z,91.5
2024-02-18T01:22:19.281Z,91.5
2024-02-18T01:23:25.441Z,91.5
2024-02-18T01:24:31.740Z,91
2024-02-18T01:25:37.939Z,91
2024-02-18T01:26:44.201Z,91
2024-02-18T01:27:50.560Z,91
2024-02-18T01:28:56.832Z,91.5
2024-02-18T01:30:03.057Z,91.5
2024-02-18T01:31:09.418Z,92
2024-02-18T01:32:15.564Z,92
2024-02-18T01:33:21.845Z,92
2024-02-18T01:34:28.117Z,92
2024-02-18T01:35:34.387Z,92.5
2024-02-18T01:36:39.678Z,92.5
2024-02-18T01:37:45.933Z,92.5
2024-02-18T01:38:52.422Z,92.5
2024-02-18T01:39:58.486Z,92.5
2024-02-18T01:41:04.760Z,92.5
2024-02-18T01:42:11.029Z,92.5
2024-02-18T01:43:17.306Z,92.5
2024-02-18T01:44:23.584Z,92.5
2024-02-18T01:45:29.845Z,92.5
2024-02-18T01:46:36.128Z,92.5
2024-02-18T01:47:42.392Z,92.5
2024-02-18T01:48:48.738Z,92.5
2024-02-18T01:49:55.044Z,92.5
2024-02-18T01:51:01.227Z,92.5
2024-02-18T01:52:06.508Z,92.5
2024-02-18T01:53:12.770Z,93
2024-02-18T01:54:19.045Z,93
2024-02-18T01:55:25.405Z,93
2024-02-18T01:56:31.809Z,93
2024-02-18T01:57:37.869Z,93
2024-02-18T01:58:44.225Z,93
2024-02-18T01:59:50.434Z,93
2024-02-18T02:00:56.758Z,92.5
2024-02-18T02:02:02.991Z,92.5
2024-02-18T02:03:09.226Z,92.5
2024-02-18T02:04:15.500Z,92.5
2024-02-18T02:05:21.796Z,92
2024-02-18T02:06:27.052Z,92
2024-02-18T02:07:33.370Z,92
2024-02-18T02:08:39.676Z,92
2024-02-18T02:09:45.907Z,92.5
2024-02-18T02:10:52.322Z,92.5
2024-02-18T02:11:58.417Z,92.5
2024-02-18T02:13:04.685Z,93
2024-02-18T02:14:10.960Z,93
2024-02-18T02:15:17.355Z,93
2024-02-18T02:16:23.580Z,93
2024-02-18T02:17:29.790Z,92.5
2024-02-18T02:18:36.067Z,92.5
2024-02-18T02:19:42.366Z,92.5
2024-02-18T02:20:47.617Z,92.5
2024-02-18T02:21:53.889Z,92.5
2024-02-18T02:23:00.342Z,92.5
2024-02-18T02:24:06.457Z,93
2024-02-18T02:25:11.725Z,92.5
2024-02-18T02:26:17.996Z,92.5
2024-02-18T02:27:24.272Z,92
2024-02-18T02:28:30.591Z,92
2024-02-18T02:29:36.817Z,92
2024-02-18T02:30:43.145Z,92
2024-02-18T02:31:49.433Z,92
2024-02-18T02:32:55.628Z,92.5
2024-02-18T02:34:02.007Z,92.5
2024-02-18T02:35:08.195Z,92.5
2024-02-18T02:36:14.518Z,92.5
2024-02-18T02:37:20.741Z,92.5
2024-02-18T02:38:26.997Z,93
2024-02-18T02:39:32.286Z,93
2024-02-18T02:40:38.658Z,93
2024-02-18T02:41:44.829Z,93
2024-02-18T02:42:51.097Z,93
2024-02-18T02:43:57.378Z,93
2024-02-18T02:45:03.730Z,93
2024-02-18T02:46:09.919Z,93
2024-02-18T02:47:16.189Z,93
2024-02-18T02:48:22.488Z,93
2024-02-18T02:49:28.729Z,93
2024-02-18T02:50:35.071Z,93
2024-02-18T02:51:41.295Z,93
2024-02-18T02:52:47.592Z,93
2024-02-18T02:53:52.901Z,93
2024-02-18T02:54:59.108Z,93
2024-02-18T02:56:05.385Z,93
2024-02-18T02:57:11.723Z,93
2024-02-18T02:58:17.937Z,93
2024-02-18T02:59:24.240Z,93
2024-02-18T03:00:30.529Z,93
2024-02-18T03:01:36.756Z,93
2024-02-18T03:02:43.023Z,93
2024-02-18T03:03:49.288Z,92.5
2024-02-18T03:04:55.560Z,92.5
2024-02-18T03:06:01.839Z,92.5
2024-02-18T03:07:08.115Z,92.5
2024-02-18T03:08:13.411Z,92
2024-02-18T03:09:19.711Z,92
2024-02-18T03:10:25.986Z,92
2024-02-18T03:11:32.207Z,92
2024-02-18T03:12:38.501Z,92
2024-02-18T03:13:44.809Z,92
2024-02-18T03:14:51.031Z,91.5
2024-02-18T03:15:57.357Z,91.5
2024-02-18T03:17:03.576Z,91.5
2024-02-18T03:18:09.846Z,91.5
2024-02-18T03:19:16.128Z,91.5
2024-02-18T03:20:22.392Z,91.5
2024-02-18T03:21:28.673Z,91
2024-02-18T03:22:33.988Z,91
2024-02-18T03:23:40.226Z,91
2024-02-18T03:24:46.491Z,91.5
2024-02-18T03:25:52.769Z,91
2024-02-18T03:26:59.095Z,91
2024-02-18T03:28:05.318Z,91
2024-02-18T03:29:11.612Z,91
2024-02-18T03:30:17.907Z,91
2024-02-18T03:31:24.155Z,91
2024-02-18T03:32:30.409Z,91.5
2024-02-18T03:33:36.681Z,91.5
2024-02-18T03:34:42.965Z,91.5
2024-02-18T03:35:49.244Z,91.5
2024-02-18T03:36:55.491Z,91.5
2024-02-18T03:38:00.839Z,91.5
2024-02-18T03:39:07.131Z,91.5
2024-02-18T03:40:13.327Z,91.5
2024-02-18T03:41:19.616Z,91.5
2024-02-18T03:42:25.876Z,91.5
2024-02-18T03:43:32.158Z,91.5
2024-02-18T03:44:38.417Z,91.5
2024-02-18T03:45:44.696Z,92
2024-02-18T03:46:50.969Z,92
2024-02-18T03:47:57.334Z,92
2024-02-18T03:49:03.549Z,92
2024-02-18T03:50:09.833Z,92.5
2024-02-18T03:51:16.052Z,92.5
2024-02-18T03:52:21.351Z,92.5
2024-02-18T03:53:27.610Z,92.5
2024-02-18T03:54:33.897Z,93
2024-02-18T03:55:40.166Z,93
2024-02-18T03:56:46.432Z,93
2024-02-18T03:57:52.702Z,93.5
2024-02-18T03:58:58.976Z,93.5
2024-02-18T04:00:05.251Z,93.5
2024-02-18T04:01:11.527Z,93.5
2024-02-18T04:02:17.793Z,93.5
2024-02-18T04:03:24.071Z,93.5
2024-02-18T04:04:30.427Z,93.5
2024-02-18T04:05:36.626Z,93.5
2024-02-18T04:06:42.886Z,93.5
2024-02-18T04:07:48.183Z,93.5
2024-02-18T04:08:54.510Z,93.5
2024-02-18T04:10:00.720Z,93.5
2024-02-18T04:11:06.988Z,93.5
2024-02-18T04:12:13.260Z,93.5
2024-02-18T04:13:19.533Z,93.5
2024-02-18T04:14:25.807Z,94
2024-02-18T04:15:32.079Z,94
2024-02-18T04:16:38.358Z,94
2024-02-18T04:17:44.625Z,93.5
2024-02-18T04:18:50.923Z,93.5
2024-02-18T04:19:57.180Z,93.5
2024-02-18T04:21:03.427Z,93.5
2024-02-18T04:22:09.719Z,93.5
2024-02-18T04:23:16.025Z,93.5
2024-02-18T04:24:21.281Z,93.5
2024-02-18T04:25:27.557Z,93.5
2024-02-18T04:26:33.820Z,93.5
2024-02-18T04:27:40.089Z,93.5
2024-02-18T04:28:46.396Z,93.5
2024-02-18T04:29:52.716Z,93.5
2024-02-18T04:30:58.907Z,93
2024-02-18T04:32:05.187Z,93
2024-02-18T04:33:11.476Z,93
2024-02-18T04:34:17.730Z,93
2024-02-18T04:35:23.999Z,92.5
2024-02-18T04:36:30.273Z,92.5
2024-02-18T04:37:36.547Z,92.5
2024-02-18T04:38:41.854Z,92.5
2024-02-18T04:39:48.107Z,92.5
2024-02-18T04:40:54.372Z,92.5
2024-02-18T04:42:00.657Z,92.5
2024-02-18T04:43:06.931Z,92.5
2024-02-18T04:44:13.193Z,93
2024-02-18T04:45:19.488Z,93.5
2024-02-18T04:46:25.748Z,93.5
2024-02-18T04:47:32.026Z,94
2024-02-18T04:48:38.284Z,94
2024-02-18T04:49:44.559Z,94
2024-02-18T04:50:50.844Z,94
2024-02-18T04:51:57.117Z,94
2024-02-18T04:53:03.377Z,94.5
2024-02-18T04:54:08.663Z,94.5
2024-02-18T04:55:14.949Z,94.5
2024-02-18T04:56:21.216Z,94.5
2024-02-18T04:57:27.468Z,94.5
2024-02-18T04:58:33.763Z,94.5
2024-02-18T04:59:40.044Z,94.5
2024-02-18T05:00:46.314Z,94.5
2024-02-18T05:01:52.612Z,94.5
2024-02-18T05:02:58.850Z,94.5
2024-02-18T05:04:05.118Z,94.5
2024-02-18T05:05:11.394Z,94.5
2024-02-18T05:06:17.704Z,94.5
2024-02-18T05:07:23.937Z,94
2024-02-18T05:08:29.227Z,94
2024-02-18T05:09:35.490Z,93.5
2024-02-18T05:10:41.775Z,93.5
2024-02-18T05:11:48.105Z,93.5
2024-02-18T05:12:54.335Z,93.5
2024-02-18T05:14:00.592Z,93
2024-02-18T05:15:06.858Z,93
2024-02-18T05:16:13.131Z,93
2024-02-18T05:17:19.411Z,93
2024-02-18T05:18:25.676Z,93
2024-02-18T05:19:31.955Z,93
2024-02-18T05:20:38.228Z,93.5
2024-02-18T05:21:44.503Z,93.5
2024-02-18T05:22:49.786Z,94
2024-02-18T05:23:56.057Z,94
2024-02-18T05:25:02.324Z,94
2024-02-18T05:26:08.595Z,94
2024-02-18T05:27:14.869Z,94.5
2024-02-18T05:28:21.147Z,94.5
2024-02-18T05:29:27.415Z,94.5
2024-02-18T05:30:33.691Z,94.5
2024-02-18T05:31:39.965Z,94.5
2024-02-18T05:32:46.229Z,94.5
2024-02-18T05:33:52.618Z,94
2024-02-18T05:34:58.834Z,94
2024-02-18T05:36:05.066Z,93.5
2024-02-18T05:37:10.328Z,93.5
2024-02-18T05:38:16.628Z,93.5
2024-02-18T05:39:22.887Z,93.5
2024-02-18T05:40:29.197Z,93.5
2024-02-18T05:41:35.436Z,93.5
2024-02-18T05:42:41.703Z,93
2024-02-18T05:43:47.991Z,93
2024-02-18T05:44:54.269Z,93.5
2024-02-18T05:46:00.534Z,93.5
2024-02-18T05:47:06.801Z,93.5
2024-02-18T05:48:13.071Z,93.5
2024-02-18T05:49:19.341Z,94
2024-02-18T05:50:25.618Z,94
2024-02-18T05:51:30.894Z,94
2024-02-18T05:52:37.177Z,94
2024-02-18T05:53:43.448Z,94
2024-02-18T05:54:49.728Z,94
2024-02-18T05:55:56.016Z,94
2024-02-18T05:57:02.269Z,94.5
2024-02-18T05:58:08.639Z,94.5
2024-02-18T05:59:14.809Z,94.5
2024-02-18T06:00:21.087Z,94.5
2024-02-18T06:01:27.341Z,94.5
2024-02-18T06:02:33.629Z,94.5
2024-02-18T06:03:39.904Z,94
2024-02-18T06:04:46.177Z,94
2024-02-18T06:05:51.520Z,93.5
2024-02-18T06:06:56.752Z,93.5
2024-02-18T06:08:03.032Z,93.5
2024-02-18T06:09:09.301Z,93.5
2024-02-18T06:10:15.580Z,93.5
2024-02-18T06:11:21.850Z,93.5
2024-02-18T06:12:28.120Z,93.5
2024-02-18T06:13:34.388Z,94
2024-02-18T06:14:40.693Z,94
2024-02-18T06:15:46.953Z,94
2024-02-18T06:16:53.223Z,94
2024-02-18T06:17:59.487Z,94.5
2024-02-18T06:19:05.818Z,94.5
2024-02-18T06:20:12.032Z,94.5
2024-02-18T06:21:17.302Z,94.5
2024-02-18T06:22:23.622Z,94.5
2024-02-18T06:23:29.968Z,94.5
2024-02-18T06:24:36.135Z,94.5
2024-02-18T06:25:42.410Z,94.5
2024-02-18T06:26:48.674Z,94.5
2024-02-18T06:27:54.952Z,94.5
2024-02-18T06:29:01.367Z,94.5
2024-02-18T06:30:07.495Z,94.5
2024-02-18T06:31:13.765Z,94.5
2024-02-18T06:32:20.036Z,94.5
2024-02-18T06:33:26.321Z,94.5
2024-02-18T06:34:32.607Z,94.5
2024-02-18T06:35:38.863Z,94.5
2024-02-18T06:36:44.174Z,94.5
2024-02-18T06:37:50.413Z,94.5
2024-02-18T06:38:56.705Z,94.5
2024-02-18T06:40:02.959Z,94.5
2024-02-18T06:41:09.234Z,94
2024-02-18T06:42:15.510Z,94
2024-02-18T06:43:21.781Z,94
2024-02-18T06:44:28.057Z,94
2024-02-18T06:45:34.499Z,94
2024-02-18T06:46:40.603Z,93.5
2024-02-18T06:47:46.875Z,93.5
2024-02-18T06:48:53.163Z,93
2024-02-18T06:49:59.420Z,93
2024-02-18T06:51:04.712Z,93.5
2024-02-18T06:52:10.985Z,93.5
2024-02-18T06:53:17.252Z,93.5
2024-02-18T06:54:23.559Z,93.5
2024-02-18T06:55:29.805Z,93.5
2024-02-18T06:56:36.071Z,93.5
2024-02-18T06:57:42.335Z,94
2024-02-18T06:58:48.611Z,94
2024-02-18T06:59:54.888Z,94
2024-02-18T07:01:01.160Z,94
2024-02-18T07:02:07.431Z,94.5
2024-02-18T07:03:13.703Z,94.5
2024-02-18T07:04:19.979Z,95
2024-02-18T07:05:26.253Z,95
2024-02-18T07:06:31.534Z,95
2024-02-18T07:07:37.815Z,95
2024-02-18T07:08:44.141Z,95
2024-02-18T07:09:50.356Z,95
2024-02-18T07:10:56.719Z,95
2024-02-18T07:12:02.923Z,95
2024-02-18T07:13:09.211Z,95
2024-02-18T07:14:15.447Z,95
2024-02-18T07:15:21.777Z,95
2024-02-18T07:16:27.986Z,95
2024-02-18T07:17:34.260Z,95
2024-02-18T07:18:40.535Z,95
2024-02-18T07:19:46.803Z,94.5
2024-02-18T07:20:52.090Z,94.5
2024-02-18T07:21:58.371Z,94.5
2024-02-18T07:23:04.641Z,94.5
2024-02-18T07:24:10.903Z,94.5
2024-02-18T07:25:17.185Z,94.5
2024-02-18T07:26:23.486Z,94.5
2024-02-18T07:27:29.746Z,94.5
2024-02-18T07:28:36.000Z,94.5
2024-02-18T07:29:42.341Z,94.5
2024-02-18T07:30:48.635Z,94.5
2024-02-18T07:31:54.903Z,94.5
2024-02-18T07:33:01.107Z,94.5
2024-02-18T07:34:07.373Z,94.5
2024-02-18T07:35:12.663Z,94.5
2024-02-18T07:36:18.927Z,94.5
2024-02-18T07:37:25.224Z,94.5
2024-02-18T07:38:31.471Z,94.5
2024-02-18T07:39:37.754Z,94.5
2024-02-18T07:40:44.018Z,94.5
2024-02-18T07:41:50.287Z,94.5
2024-02-18T07:42:56.569Z,94.5
2024-02-18T07:44:02.834Z,94.5
2024-02-18T07:45:09.108Z,94.5
2024-02-18T07:46:15.387Z,94.5
2024-02-18T07:47:21.664Z,94.5
2024-02-18T07:48:27.931Z,94.5
2024-02-18T07:49:33.217Z,94.5
2024-02-18T07:50:39.488Z,94.5
2024-02-18T07:51:45.767Z,94
2024-02-18T07:52:52.036Z,94
2024-02-18T07:53:58.309Z,94
2024-02-18T07:55:04.573Z,94
2024-02-18T07:56:10.856Z,94
2024-02-18T07:57:17.126Z,93.5
2024-02-18T07:58:23.402Z,93.5
2024-02-18T07:59:29.670Z,93.5
2024-02-18T08:00:35.951Z,93.5
2024-02-18T08:01:42.218Z,93.5
2024-02-18T08:02:48.539Z,93
2024-02-18T08:03:53.776Z,93
2024-02-18T08:05:00.083Z,93
2024-02-18T08:06:06.326Z,92.5
2024-02-18T08:07:12.592Z,92.5
2024-02-18T08:08:18.940Z,92.5
2024-02-18T08:09:25.152Z,92.5
2024-02-18T08:10:31.518Z,92
2024-02-18T08:11:37.696Z,91.5
2024-02-18T08:12:44.152Z,91
2024-02-18T08:13:50.229Z,91
2024-02-18T08:14:56.496Z,91
2024-02-18T08:16:02.847Z,91
2024-02-18T08:17:09.043Z,91
2024-02-18T08:18:14.550Z,91
2024-02-18T08:19:20.602Z,91
2024-02-18T08:20:27.048Z,91
2024-02-18T08:21:33.260Z,91
2024-02-18T08:22:39.424Z,90.5
2024-02-18T08:23:45.693Z,90.5
2024-02-18T08:24:52.006Z,91
2024-02-18T08:25:58.283Z,91
2024-02-18T08:27:04.550Z,90.5
2024-02-18T08:28:10.782Z,90.5
2024-02-18T08:29:17.056Z,90
2024-02-18T08:30:23.688Z,90
2024-02-18T08:31:29.602Z,90
2024-02-18T08:32:34.943Z,90.5
2024-02-18T08:33:41.158Z,90.5
2024-02-18T08:34:47.455Z,90.5
2024-02-18T08:35:53.700Z,90.5
2024-02-18T08:36:59.982Z,90.5
2024-02-18T08:38:06.244Z,90.5
2024-02-18T08:39:12.528Z,90
2024-02-18T08:40:18.801Z,90
2024-02-18T08:41:25.140Z,90
2024-02-18T08:42:31.336Z,90
2024-02-18T08:43:37.609Z,89.5
2024-02-18T08:44:43.874Z,89.5
2024-02-18T08:45:50.155Z,89.5
2024-02-18T08:46:55.447Z,89.5
2024-02-18T08:48:01.722Z,89.5
2024-02-18T08:49:08.014Z,89.5
2024-02-18T08:50:14.266Z,89
2024-02-18T08:51:20.549Z,89
2024-02-18T08:52:26.799Z,89
2024-02-18T08:53:33.079Z,88.5
2024-02-18T08:54:39.350Z,88.5
2024-02-18T08:55:45.616Z,88.5
2024-02-18T08:56:51.887Z,88.5
2024-02-18T08:57:58.171Z,88.5
2024-02-18T08:59:04.431Z,88
2024-02-18T09:00:10.709Z,88
2024-02-18T09:01:15.999Z,88
2024-02-18T09:02:22.265Z,88
2024-02-18T09:03:28.534Z,88.5
2024-02-18T09:04:34.815Z,88
2024-02-18T09:05:41.081Z,88
2024-02-18T09:06:47.403Z,88
2024-02-18T09:07:53.623Z,88
2024-02-18T09:09:00.045Z,88
2024-02-18T09:10:06.214Z,88
2024-02-18T09:11:12.473Z,88
2024-02-18T09:12:18.790Z,88
2024-02-18T09:13:25.084Z,88
2024-02-18T09:14:31.266Z,87.5
2024-02-18T09:15:36.546Z,87.5
2024-02-18T09:16:42.812Z,87
2024-02-18T09:17:49.123Z,87
2024-02-18T09:18:55.367Z,87
2024-02-18T09:20:01.650Z,86.5
2024-02-18T09:21:07.966Z,86.5
2024-02-18T09:22:14.201Z,86.5
2024-02-18T09:23:20.543Z,86
2024-02-18T09:24:26.889Z,85.5
2024-02-18T09:25:33.090Z,85.5
2024-02-18T09:26:39.271Z,85.5
2024-02-18T09:27:45.593Z,85
2024-02-18T09:28:51.896Z,85
2024-02-18T09:29:57.095Z,85
2024-02-18T09:31:03.370Z,84.5
2024-02-18T09:32:09.645Z,84
2024-02-18T09:33:15.919Z,84
2024-02-18T09:34:22.274Z,84
2024-02-18T09:35:28.542Z,84.5
2024-02-18T09:36:34.727Z,84.5
2024-02-18T09:37:41.038Z,85
2024-02-18T09:38:47.361Z,85
2024-02-18T09:39:53.552Z,85.5
2024-02-18T09:40:59.816Z,85.5
2024-02-18T09:42:06.093Z,84.5
2024-02-18T09:43:12.365Z,84.5
2024-02-18T09:44:17.704Z,85
2024-02-18T09:45:24.177Z,84.5
2024-02-18T09:46:30.193Z,84.5
2024-02-18T09:47:36.487Z,84.5
2024-02-18T09:48:42.746Z,84
2024-02-18T09:49:49.020Z,84
2024-02-18T09:50:54.333Z,84
2024-02-18T09:52:00.708Z,83.5
2024-02-18T09:53:06.849Z,84
2024-02-18T09:54:13.154Z,83.5
2024-02-18T09:55:19.397Z,84
2024-02-18T09:56:25.667Z,84
2024-02-18T09:57:31.938Z,84.5
2024-02-18T09:58:38.207Z,84.5
2024-02-18T09:59:44.514Z,83.5
2024-02-18T10:00:50.763Z,83.5
2024-02-18T10:01:57.018Z,83.5
2024-02-18T10:03:03.292Z,83
2024-02-18T10:04:09.616Z,83
2024-02-18T10:05:14.964Z,83.5
2024-02-18T10:06:21.248Z,83.5
2024-02-18T10:07:27.402Z,83
2024-02-18T10:08:33.762Z,83
2024-02-18T10:09:39.942Z,83
2024-02-18T10:10:46.212Z,83
2024-02-18T10:11:52.520Z,83
2024-02-18T10:12:58.760Z,83
2024-02-18T10:14:05.242Z,83
2024-02-18T10:15:11.345Z,83
2024-02-18T10:16:17.604Z,82.5
2024-02-18T10:17:23.965Z,82.5
2024-02-18T10:18:30.134Z,82.5
2024-02-18T10:19:35.402Z,82.5
2024-02-18T10:20:41.679Z,82.5
2024-02-18T10:21:48.081Z,82.5
2024-02-18T10:22:54.351Z,82.5
2024-02-18T10:24:00.514Z,82.5
2024-02-18T10:25:06.771Z,82
2024-02-18T10:26:13.046Z,82
2024-02-18T10:27:19.309Z,82
2024-02-18T10:28:25.575Z,82.5
2024-02-18T10:29:31.863Z,82.5
2024-02-18T10:30:38.125Z,81
2024-02-18T10:31:44.392Z,80
2024-02-18T10:32:50.667Z,80
2024-02-18T10:33:56.010Z,79.5
2024-02-18T10:35:02.239Z,79
2024-02-18T10:36:08.510Z,79
2024-02-18T10:37:14.770Z,79
2024-02-18T10:38:21.039Z,79
2024-02-18T10:39:27.309Z,78.5
2024-02-18T10:40:33.581Z,78.5
2024-02-18T10:41:39.871Z,77
2024-02-18T10:42:46.139Z,76.5
2024-02-18T10:43:52.408Z,77
2024-02-18T10:44:58.680Z,77
2024-02-18T10:46:04.944Z,76.5
2024-02-18T10:47:11.211Z,76
2024-02-18T10:48:16.539Z,75.5
2024-02-18T10:49:22.774Z,75
2024-02-18T10:50:29.040Z,75.5
2024-02-18T10:51:35.332Z,75.5
2024-02-18T10:52:41.592Z,74.5
2024-02-18T10:53:47.861Z,74.5
2024-02-18T10:54:54.131Z,74.5
2024-02-18T10:56:00.408Z,73.5
2024-02-18T10:57:06.676Z,74
2024-02-18T10:58:12.945Z,73.5
2024-02-18T10:59:19.234Z,74.5
2024-02-18T11:00:25.515Z,73.5
2024-02-18T11:01:31.758Z,74
2024-02-18T11:02:37.052Z,74.5
2024-02-18T11:03:43.329Z,74.5
2024-02-18T11:04:49.589Z,73.5
2024-02-18T11:05:55.854Z,73
2024-02-18T11:07:02.137Z,73.5
2024-02-18T11:08:08.417Z,72
2024-02-18T11:09:14.681Z,73
2024-02-18T11:10:20.950Z,73
2024-02-18T11:11:27.223Z,73
2024-02-18T11:12:33.492Z,73.5
2024-02-18T11:13:39.769Z,72
2024-02-18T11:14:46.042Z,72
2024-02-18T11:15:52.314Z,72.5
2024-02-18T11:16:57.621Z,72
2024-02-18T11:18:03.901Z,71.5
2024-02-18T11:19:10.150Z,71.5
2024-02-18T11:20:16.417Z,69.5
2024-02-18T11:21:22.688Z,68.5
2024-02-18T11:22:28.958Z,69
2024-02-18T11:23:35.308Z,70
2024-02-18T11:24:41.507Z,69
2024-02-18T11:25:47.783Z,69
2024-02-18T11:26:54.049Z,70
2024-02-18T11:28:00.326Z,70.5
2024-02-18T11:29:06.593Z,70
2024-02-18T11:30:12.859Z,70
2024-02-18T11:31:18.152Z,70
2024-02-18T11:32:24.563Z,69.5
2024-02-18T11:33:30.691Z,70
2024-02-18T11:34:36.967Z,69.5
2024-02-18T11:35:43.246Z,69
2024-02-18T11:36:49.553Z,68.5
2024-02-18T11:37:55.796Z,67.5
2024-02-18T11:39:02.059Z,66
2024-02-18T11:40:08.329Z,66
2024-02-18T11:41:14.598Z,67
2024-02-18T11:42:20.987Z,67
2024-02-18T11:43:27.151Z,66
2024-02-18T11:44:33.426Z,66.5
2024-02-18T11:45:38.703Z,65.5
2024-02-18T11:46:44.978Z,66.5
2024-02-18T11:47:51.259Z,66
2024-02-18T11:48:57.534Z,66
2024-02-18T11:50:03.797Z,65.5
2024-02-18T11:51:10.081Z,66
2024-02-18T11:52:16.337Z,67.5
2024-02-18T11:53:22.618Z,66.5
2024-02-18T11:54:28.890Z,66.5
2024-02-18T11:55:35.160Z,67.5
2024-02-18T11:56:41.428Z,66.5
2024-02-18T11:57:47.708Z,67
2024-02-18T11:58:53.964Z,67
2024-02-18T12:00:00.251Z,65.5
2024-02-18T12:01:05.532Z,66.5
2024-02-18T12:02:11.824Z,64.5
2024-02-18T12:03:18.072Z,63
2024-02-18T12:04:24.350Z,63.5
2024-02-18T12:05:30.872Z,61.5
2024-02-18T12:06:37.064Z,62.5
2024-02-18T12:07:43.230Z,63
2024-02-18T12:08:49.460Z,62.5
2024-02-18T12:09:55.708Z,63.5
2024-02-18T12:11:01.988Z,64.5
2024-02-18T12:12:08.247Z,65.5
2024-02-18T12:13:14.527Z,65.5
2024-02-18T12:14:20.800Z,61
2024-02-18T12:15:27.067Z,60.5
2024-02-18T12:16:32.352Z,60.5
2024-02-18T12:17:38.665Z,62
2024-02-18T12:18:44.895Z,61.5
2024-02-18T12:19:51.164Z,61
2024-02-18T12:20:57.506Z,61.5
2024-02-18T12:22:03.710Z,61
2024-02-18T12:23:09.982Z,60.5
2024-02-18T12:24:16.247Z,61
2024-02-18T12:25:22.540Z,61
2024-02-18T12:26:28.804Z,60
2024-02-18T12:27:35.069Z,59.5
2024-02-18T12:28:41.565Z,59.5
2024-02-18T12:29:47.638Z,61.5
2024-02-18T12:30:52.909Z,58.5
2024-02-18T12:31:59.191Z,61
2024-02-18T12:33:05.448Z,61
2024-02-18T12:34:11.720Z,59
2024-02-18T12:35:17.997Z,59
2024-02-18T12:36:24.258Z,61
2024-02-18T12:37:30.533Z,61
2024-02-18T12:38:36.811Z,62.5
2024-02-18T12:39:43.070Z,63
2024-02-18T12:40:49.353Z,63.5
2024-02-18T12:41:55.747Z,63.5
2024-02-18T12:43:01.899Z,63.5
2024-02-18T12:44:08.218Z,64.5
2024-02-18T12:45:13.472Z,64
2024-02-18T12:46:19.723Z,64
2024-02-18T12:47:26.114Z,64.5
2024-02-18T12:48:32.521Z,64.5
2024-02-18T12:49:38.575Z,65
2024-02-18T12:50:44.927Z,65.5
2024-02-18T12:51:51.274Z,65.5
2024-02-18T12:52:57.353Z,65.5
2024-02-18T12:54:03.780Z,65.5
2024-02-18T12:55:09.893Z,65.5
2024-02-18T12:56:16.326Z,65.5
2024-02-18T12:57:22.450Z,65.5
2024-02-18T12:58:28.724Z,65.5
2024-02-18T12:59:34.037Z,66.5
2024-02-18T13:00:40.364Z,66
2024-02-18T13:01:46.548Z,66
2024-02-18T13:02:52.818Z,66
2024-02-18T13:03:59.096Z,65
2024-02-18T13:05:05.393Z,65.5
2024-02-18T13:06:11.633Z,66
2024-02-18T13:07:17.927Z,66.5
2024-02-18T13:08:24.182Z,64.5
2024-02-18T13:09:30.547Z,65.5
2024-02-18T13:10:36.956Z,65.5
2024-02-18T13:11:43.230Z,66
2024-02-18T13:12:49.263Z,65.5
2024-02-18T13:13:54.578Z,66.5
2024-02-18T13:15:00.832Z,66
2024-02-18T13:16:07.200Z,67
2024-02-18T13:17:13.377Z,67
2024-02-18T13:18:19.639Z,67.5
2024-02-18T13:19:25.918Z,66.5
2024-02-18T13:20:32.236Z,66.5
2024-02-18T13:21:38.461Z,67
2024-02-18T13:22:44.726Z,66.5
2024-02-18T13:23:51.004Z,66.5
2024-02-18T13:24:57.317Z,67.5
2024-02-18T13:26:03.540Z,67.5
2024-02-18T13:27:09.888Z,68
2024-02-18T13:28:15.271Z,68.5
2024-02-18T13:29:21.376Z,68.5
2024-02-18T13:30:27.742Z,68.5
2024-02-18T13:31:33.926Z,68.5
2024-02-18T13:32:39.219Z,69
2024-02-18T13:33:45.574Z,69.5
2024-02-18T13:34:51.764Z,69
2024-02-18T13:35:58.027Z,69
2024-02-18T13:37:04.313Z,69.5
2024-02-18T13:38:10.610Z,69
2024-02-18T13:39:16.903Z,69
2024-02-18T13:40:23.119Z,69.5
2024-02-18T13:41:29.391Z,69.5
2024-02-18T13:42:35.665Z,69
2024-02-18T13:43:42.023Z,69
2024-02-18T13:44:48.202Z,69.5
2024-02-18T13:45:54.493Z,69.5
2024-02-18T13:47:00.761Z,69.5
2024-02-18T13:48:06.049Z,69.5
2024-02-18T13:49:12.313Z,70.5
2024-02-18T13:50:18.584Z,71
2024-02-18T13:51:24.855Z,70
2024-02-18T13:52:31.128Z,70
2024-02-18T13:53:37.410Z,69.5
2024-02-18T13:54:43.675Z,69.5
2024-02-18T13:55:50.013Z,69.5
2024-02-18T13:56:56.220Z,70
2024-02-18T13:58:02.488Z,70.5
2024-02-18T13:59:08.764Z,71
2024-02-18T14:00:15.035Z,71
2024-02-18T14:01:21.311Z,71
2024-02-18T14:02:26.602Z,71
2024-02-18T14:03:32.863Z,70.5
2024-02-18T14:04:39.143Z,70
2024-02-18T14:05:45.410Z,70
2024-02-18T14:06:51.686Z,70.5
2024-02-18T14:07:57.953Z,70.5
2024-02-18T14:09:04.235Z,70
2024-02-18T14:10:10.498Z,70
2024-02-18T14:11:16.774Z,70.5
2024-02-18T14:12:23.061Z,70.5
2024-02-18T14:13:29.316Z,70.5
2024-02-18T14:14:35.586Z,70.5
2024-02-18T14:15:41.962Z,70.5
2024-02-18T14:16:47.155Z,70.5
2024-02-18T14:17:53.418Z,71
2024-02-18T14:18:59.712Z,71
2024-02-18T14:20:05.965Z,71.5
2024-02-18T14:21:12.234Z,71.5
2024-02-18T14:22:18.520Z,71.5
2024-02-18T14:23:24.783Z,71.5
2024-02-18T14:24:31.053Z,72
2024-02-18T14:25:37.336Z,72
2024-02-18T14:26:43.599Z,72
2024-02-18T14:27:49.860Z,72.5
2024-02-18T14:28:56.304Z,72.5
2024-02-18T14:30:02.408Z,72.5
2024-02-18T14:31:07.689Z,73
2024-02-18T14:32:13.985Z,73.5
2024-02-18T14:33:20.242Z,73.5
2024-02-18T14:34:26.624Z,74
2024-02-18T14:35:32.787Z,74
2024-02-18T14:36:39.066Z,74.5
2024-02-18T14:37:45.367Z,74
2024-02-18T14:38:51.606Z,74.5
2024-02-18T14:39:57.936Z,74.5
2024-02-18T14:41:04.144Z,74.5
2024-02-18T14:42:10.420Z,74.5
2024-02-18T14:43:16.694Z,74.5
2024-02-18T14:44:22.969Z,74.5
2024-02-18T14:45:28.255Z,74.5
2024-02-18T14:46:34.530Z,74.5
2024-02-18T14:47:40.801Z,74.5
2024-02-18T14:48:47.198Z,74.5
2024-02-18T14:49:53.342Z,74.5
2024-02-18T14:50:59.616Z,74.5
2024-02-18T14:52:05.894Z,74.5
2024-02-18T14:53:12.160Z,74
2024-02-18T14:54:18.439Z,74
2024-02-18T14:55:24.688Z,74
2024-02-18T14:56:30.972Z,74
2024-02-18T14:57:37.246Z,74
2024-02-18T14:58:43.532Z,73
2024-02-18T14:59:48.857Z,73.5
2024-02-18T15:00:55.081Z,74
2024-02-18T15:02:01.365Z,73.5
2024-02-18T15:03:07.634Z,73.5
2024-02-18T15:04:13.896Z,73.5
2024-02-18T15:05:20.390Z,73.5
2024-02-18T15:06:26.582Z,73.5
2024-02-18T15:07:32.803Z,74
2024-02-18T15:08:39.006Z,74